Time;durP1;ratioP1;P1;durP2;ratioP2;P2;SDS_P1;SDS_P2;PMS_P1;PMS_P2;Temp;Humidity;BMP_temperature;BMP_pressure;BME280_temperature;BME280_humidity;BME280_pressure;Samples;Min_cycle;Max_cycle;Signal;HPM_P1;HPM_P2
2021/12/28 00:00:53;;;;;;;10.88;2.22;;;;;;;18.85;51.79;99358.72;5033173;28;20041;-65
2021/12/28 00:03:18;;;;;;;11.20;2.50;;;;;;;18.84;51.70;99362.34;5033738;28;20034;-65
2021/12/28 00:05:44;;;;;;;8.57;2.37;;;;;;;18.82;51.93;99359.00;5032367;28;20037;-64
2021/12/28 00:08:09;;;;;;;8.90;2.13;;;;;;;18.80;51.87;99355.72;5033543;28;20833;-65
2021/12/28 00:10:34;;;;;;;9.90;1.90;;;;;;;18.79;51.94;99363.81;5033373;28;20048;-64
2021/12/28 00:13:00;;;;;;;8.70;2.15;;;;;;;18.78;51.99;99362.97;5033886;28;20469;-64
2021/12/28 00:18:04;;;;;;;8.15;2.03;;;;;;;18.72;52.00;99354.88;5034588;28;20015;-65
2021/12/28 00:20:40;;;;;;;9.15;2.33;;;;;;;18.72;51.76;99357.53;5036443;28;20030;-65
2021/12/28 00:23:14;;;;;;;12.02;2.20;;;;;;;18.71;51.83;99350.59;5038224;28;20045;-65
2021/12/28 00:25:41;;;;;;;9.05;2.10;;;;;;;18.67;51.79;99345.66;5036494;28;20033;-65
2021/12/28 00:28:07;;;;;;;7.75;2.05;;;;;;;18.65;51.69;99342.34;5039454;28;20026;-66
2021/12/28 00:30:35;;;;;;;10.43;2.38;;;;;;;18.64;51.64;99345.16;5038819;28;20155;-65
2021/12/28 00:33:01;;;;;;;9.55;2.20;;;;;;;18.62;51.65;99339.22;5032264;28;20428;-65
2021/12/28 00:35:31;;;;;;;11.70;2.20;;;;;;;18.61;51.68;99330.47;5033126;28;20029;-65
2021/12/28 00:37:57;;;;;;;11.45;2.50;;;;;;;18.60;51.74;99325.38;5032949;28;20045;-65
2021/12/28 00:40:23;;;;;;;9.68;2.53;;;;;;;18.59;51.73;99334.25;5032134;28;20048;-65
2021/12/28 00:42:48;;;;;;;8.20;1.70;;;;;;;18.56;51.79;99335.41;5032419;28;20402;-64
2021/12/28 00:45:14;;;;;;;11.55;2.42;;;;;;;18.56;51.73;99329.31;5032840;28;20072;-64
2021/12/28 00:47:40;;;;;;;10.20;2.10;;;;;;;18.55;51.77;99333.78;5031888;28;20022;-65
2021/12/28 00:50:07;;;;;;;9.48;2.50;;;;;;;18.54;51.74;99333.94;5032979;28;20381;-64
2021/12/28 00:52:32;;;;;;;10.77;2.55;;;;;;;18.53;51.88;99332.28;5033640;28;20042;-65
2021/12/28 00:54:58;;;;;;;10.07;2.45;;;;;;;18.49;51.73;99321.25;5036026;28;20031;-65
2021/12/28 00:57:23;;;;;;;10.40;2.22;;;;;;;18.50;51.65;99317.63;5036906;28;20052;-64
2021/12/28 00:59:48;;;;;;;9.93;2.30;;;;;;;18.49;51.87;99322.06;5036039;28;20495;-65
2021/12/28 01:02:13;;;;;;;9.30;2.35;;;;;;;18.47;51.59;99315.31;5036427;28;20302;-65
2021/12/28 01:04:39;;;;;;;8.70;2.47;;;;;;;18.45;51.60;99318.09;5036318;28;20075;-65
2021/12/28 01:07:04;;;;;;;9.65;2.35;;;;;;;18.45;51.59;99306.72;5035815;28;20855;-64
2021/12/28 01:09:31;;;;;;;9.48;2.17;;;;;;;18.44;51.84;99305.09;5035987;28;20037;-65
2021/12/28 01:12:05;;;;;;;10.05;2.70;;;;;;;18.44;51.68;99305.09;5036571;28;20147;-65
2021/12/28 01:14:30;;;;;;;9.82;2.53;;;;;;;18.42;51.62;99305.25;5035388;28;20100;-64
2021/12/28 01:16:56;;;;;;;9.43;2.35;;;;;;;18.39;51.72;99300.28;5036472;28;20155;-64
2021/12/28 01:19:21;;;;;;;8.70;2.40;;;;;;;18.40;51.79;99306.38;5036491;28;20431;-65
2021/12/28 01:21:47;;;;;;;9.75;2.10;;;;;;;18.39;51.98;99296.81;5035294;28;20025;-65
2021/12/28 01:24:12;;;;;;;12.07;2.33;;;;;;;18.38;51.87;99301.28;5035868;28;20072;-65
2021/12/28 01:26:38;;;;;;;11.38;2.22;;;;;;;18.32;51.62;99291.38;5035882;28;20025;-65
2021/12/28 01:29:04;;;;;;;9.45;2.25;;;;;;;18.36;51.55;99299.78;5035451;28;20065;-65
2021/12/28 01:31:29;;;;;;;7.93;2.10;;;;;;;18.33;51.75;99290.41;5035969;28;20021;-64
2021/12/28 01:33:54;;;;;;;10.02;2.28;;;;;;;18.31;51.56;99295.03;5036053;28;20474;-65
2021/12/28 01:36:20;;;;;;;8.27;2.45;;;;;;;18.31;51.79;99300.28;5035171;28;20511;-65
2021/12/28 01:38:45;;;;;;;8.32;2.40;;;;;;;18.30;51.73;99296.00;5035530;28;20033;-65
2021/12/28 01:41:10;;;;;;;10.60;2.58;;;;;;;18.29;52.04;99300.44;5035812;28;20065;-65
2021/12/28 01:43:40;;;;;;;9.73;2.30;;;;;;;18.29;51.94;99296.97;5034969;28;20108;-65
2021/12/28 01:46:07;;;;;;;9.75;2.13;;;;;;;18.27;52.01;99293.69;5035664;28;20544;-65
2021/12/28 01:48:34;;;;;;;8.38;2.17;;;;;;;18.27;51.83;99291.84;5035423;28;20436;-66
2021/12/28 01:51:13;;;;;;;10.27;2.45;;;;;;;18.27;51.68;99293.69;5034797;28;20362;-64
2021/12/28 01:53:40;;;;;;;8.90;2.30;;;;;;;18.25;51.97;99295.66;5035385;28;20516;-64
2021/12/28 01:56:13;;;;;;;10.93;2.47;;;;;;;18.24;51.80;99300.09;5034954;28;20041;-64
2021/12/28 01:58:39;;;;;;;12.70;3.03;;;;;;;18.23;51.69;99290.56;5035275;28;20105;-66
2021/12/28 02:01:08;;;;;;;10.18;2.45;;;;;;;18.21;51.84;99284.59;5035536;28;20120;-65
2021/12/28 02:03:35;;;;;;;12.57;2.80;;;;;;;18.21;51.85;99294.34;5033992;28;20013;-66
2021/12/28 02:06:01;;;;;;;11.95;3.28;;;;;;;18.19;51.84;99285.75;5035321;28;20757;-65
2021/12/28 02:08:26;;;;;;;12.00;2.78;;;;;;;18.19;52.00;99291.03;5035598;28;20100;-65
2021/12/28 02:10:54;;;;;;;9.68;2.30;;;;;;;18.18;51.77;99281.47;5034354;28;20029;-66
2021/12/28 02:13:19;;;;;;;11.93;2.50;;;;;;;18.17;51.87;99287.75;5035381;28;20034;-65
2021/12/28 02:15:45;;;;;;;11.35;2.63;;;;;;;18.16;51.88;99289.53;5035021;28;20029;-65
2021/12/28 02:18:13;;;;;;;10.02;2.60;;;;;;;18.15;51.97;99295.81;5034138;28;20041;-65
2021/12/28 02:20:39;;;;;;;11.82;2.33;;;;;;;18.13;51.97;99285.44;5035022;28;20025;-65
2021/12/28 02:23:05;;;;;;;12.68;2.97;;;;;;;18.13;51.95;99288.06;5035084;28;20046;-65
2021/12/28 02:25:35;;;;;;;10.10;3.00;;;;;;;18.13;51.81;99287.22;5034024;28;20029;-65
2021/12/28 02:28:05;;;;;;;13.88;2.85;;;;;;;18.12;52.06;99282.97;5035103;28;20099;-66
2021/12/28 02:30:33;;;;;;;11.38;3.63;;;;;;;18.12;51.93;99280.31;5034724;28;20040;-65
2021/12/28 02:32:59;;;;;;;8.80;2.53;;;;;;;18.11;51.89;99268.13;5034022;28;20163;-65
2021/12/28 02:35:26;;;;;;;12.23;2.50;;;;;;;18.09;52.08;99272.75;5035066;28;20022;-65
2021/12/28 02:37:53;;;;;;;11.18;3.42;;;;;;;18.10;52.00;99272.56;5034720;28;20143;-65
2021/12/28 02:40:22;;;;;;;11.63;2.72;;;;;;;18.09;52.25;99272.75;5034329;28;20051;-65
2021/12/28 02:42:48;;;;;;;10.63;2.08;;;;;;;18.09;52.11;99280.66;5034151;28;20061;-65
2021/12/28 02:45:21;;;;;;;13.05;2.67;;;;;;;18.07;52.18;99275.53;5034494;28;20507;-65
2021/12/28 02:47:47;;;;;;;10.98;2.80;;;;;;;18.07;52.02;99270.25;5034564;28;20022;-65
2021/12/28 02:50:34;;;;;;;10.05;2.25;;;;;;;18.07;52.32;99272.06;5034690;28;20028;-65
2021/12/28 02:53:03;;;;;;;8.50;2.53;;;;;;;18.05;52.25;99259.03;5033957;28;20029;-65
2021/12/28 02:55:31;;;;;;;11.32;2.28;;;;;;;18.05;52.43;99261.66;5034484;28;20077;-66
2021/12/28 02:58:00;;;;;;;11.93;3.25;;;;;;;18.04;52.37;99253.91;5034461;28;20088;-65
2021/12/28 03:00:29;;;;;;;10.85;2.33;;;;;;;18.03;52.42;99242.56;5033853;28;20100;-65
2021/12/28 03:02:55;;;;;;;9.60;2.70;;;;;;;18.03;52.17;99249.66;5034420;28;20123;-64
2021/12/28 03:05:23;;;;;;;9.25;2.10;;;;;;;18.05;51.82;99245.03;5034264;28;20057;-66
2021/12/28 03:07:48;;;;;;;11.82;2.72;;;;;;;18.07;51.87;99238.63;5033228;28;20030;-65
2021/12/28 03:10:14;;;;;;;11.57;2.70;;;;;;;18.09;51.95;99239.28;5034182;28;20417;-65
2021/12/28 03:12:39;;;;;;;11.40;2.80;;;;;;;18.12;51.74;99238.97;5033825;28;20076;-65
2021/12/28 03:15:05;;;;;;;14.00;2.83;;;;;;;18.17;51.87;99242.94;5033329;28;20026;-64
2021/12/28 03:17:30;;;;;;;11.70;2.90;;;;;;;18.19;51.70;99247.03;5033893;28;20046;-65
2021/12/28 03:19:55;;;;;;;11.88;2.60;;;;;;;18.21;51.56;99249.50;5034205;28;20095;-65
2021/12/28 03:22:20;;;;;;;10.40;2.50;;;;;;;18.22;51.54;99245.88;5032993;28;20128;-65
2021/12/28 03:24:46;;;;;;;11.07;2.53;;;;;;;18.24;51.42;99239.44;5033662;28;20294;-65
2021/12/28 03:27:11;;;;;;;10.85;2.67;;;;;;;18.25;51.41;99233.19;5033830;28;20742;-66
2021/12/28 03:29:36;;;;;;;12.77;3.00;;;;;;;18.26;51.47;99237.50;5033026;28;20121;-65
2021/12/28 03:32:03;;;;;;;10.35;3.38;;;;;;;18.26;51.36;99231.38;5033725;28;20112;-65
2021/12/28 03:34:28;;;;;;;10.52;3.28;;;;;;;18.28;51.44;99226.78;5033788;28;20124;-66
2021/12/28 03:36:53;;;;;;;12.13;2.70;;;;;;;18.27;51.44;99225.13;5032564;28;20521;-65
2021/12/28 03:39:18;;;;;;;8.45;2.20;;;;;;;18.28;51.36;99224.97;5033526;28;20271;-65
2021/12/28 03:41:44;;;;;;;12.38;2.90;;;;;;;18.27;51.58;99211.94;5032771;28;20079;-65
2021/12/28 03:44:09;;;;;;;10.27;2.70;;;;;;;18.28;51.58;99216.22;5033587;28;20029;-65
2021/12/28 03:46:35;;;;;;;11.18;2.55;;;;;;;18.27;51.44;99214.56;5033490;28;20428;-65
2021/12/28 03:49:00;;;;;;;10.32;2.70;;;;;;;18.28;51.56;99208.31;5032963;28;20474;-66
2021/12/28 03:51:26;;;;;;;8.95;2.33;;;;;;;18.28;51.60;99209.13;5033445;28;20025;-66
2021/12/28 03:53:51;;;;;;;10.77;2.80;;;;;;;18.28;51.47;99205.69;5033040;28;20119;-65
2021/12/28 03:56:20;;;;;;;11.63;2.65;;;;;;;18.28;51.59;99209.13;5032647;28;20029;-66
2021/12/28 03:58:46;;;;;;;8.38;2.30;;;;;;;18.26;51.52;99190.03;5033193;28;20033;-64
2021/12/28 04:01:16;;;;;;;14.75;2.55;;;;;;;18.27;51.30;99196.94;5033387;28;20039;-65
2021/12/28 04:03:41;;;;;;;9.95;2.75;;;;;;;18.28;51.50;99193.31;5032237;28;20512;-66
2021/12/28 04:06:09;;;;;;;10.85;2.40;;;;;;;18.29;51.50;99192.34;5033112;28;20037;-65
2021/12/28 04:08:39;;;;;;;10.02;3.10;;;;;;;18.29;51.58;99189.69;5032731;28;20026;-65
2021/12/28 04:13:49;;;;;;;9.00;2.58;;;;;;;18.32;51.65;99191.16;5033069;28;20046;-65
2021/12/28 04:16:15;;;;;;;10.52;2.42;;;;;;;18.34;51.71;99191.84;5033114;28;20021;-65
2021/12/28 04:18:44;;;;;;;7.70;3.00;;;;;;;18.35;51.53;99190.81;5032064;28;20037;-66
2021/12/28 04:21:12;;;;;;;9.55;2.35;;;;;;;18.34;51.41;99189.19;5032992;28;20448;-65
2021/12/28 04:23:38;;;;;;;8.02;2.22;;;;;;;18.35;51.56;99185.56;5032425;28;20107;-65
2021/12/28 04:26:05;;;;;;;9.93;2.25;;;;;;;18.34;51.52;99181.28;5032302;28;20038;-65
2021/12/28 04:28:31;;;;;;;12.50;2.80;;;;;;;18.36;51.71;99187.22;5031983;28;20068;-65
2021/12/28 04:30:56;;;;;;;10.15;2.33;;;;;;;18.36;51.62;99189.00;5032024;28;20064;-65
2021/12/28 04:33:22;;;;;;;8.25;2.60;;;;;;;18.36;51.81;99189.84;5032756;28;20029;-65
2021/12/28 04:35:47;;;;;;;10.32;2.38;;;;;;;18.36;51.88;99192.50;5032475;28;20033;-65
2021/12/28 04:38:13;;;;;;;8.95;2.20;;;;;;;18.36;51.69;99189.84;5032264;28;20033;-65
2021/12/28 04:40:39;;;;;;;12.10;2.42;;;;;;;18.36;51.59;99187.22;5032650;28;20067;-65
2021/12/28 04:43:06;;;;;;;11.35;2.28;;;;;;;18.36;51.86;99189.84;5032911;28;20065;-65
2021/12/28 04:45:32;;;;;;;8.38;2.17;;;;;;;18.34;51.61;99197.13;5031758;28;20033;-65
2021/12/28 04:47:57;;;;;;;12.40;2.38;;;;;;;18.33;51.57;99189.38;5032781;28;20021;-65
2021/12/28 04:50:23;;;;;;;9.43;2.30;;;;;;;18.34;51.79;99199.75;5032634;28;20087;-65
2021/12/28 04:52:48;;;;;;;10.40;2.38;;;;;;;18.33;51.68;99203.38;5031811;28;20533;-65
2021/12/28 04:55:17;;;;;;;13.15;2.40;;;;;;;18.34;51.26;99201.53;5032510;28;20025;-65
2021/12/28 04:57:44;;;;;;;9.75;2.28;;;;;;;18.36;51.67;99202.19;5032228;28;20041;-65
2021/12/28 05:00:19;;;;;;;11.80;2.10;;;;;;;18.35;51.87;99201.38;5032059;28;20108;-65
2021/12/28 05:02:45;;;;;;;7.47;1.98;;;;;;;18.37;51.85;99201.22;5032088;28;20529;-65
2021/12/28 05:05:13;;;;;;;9.63;2.40;;;;;;;18.37;51.81;99196.75;5032602;28;20167;-65
2021/12/28 05:07:39;;;;;;;12.13;2.67;;;;;;;18.37;51.75;99188.03;5031561;28;20030;-65
2021/12/28 05:10:06;;;;;;;11.68;2.28;;;;;;;18.38;51.89;99187.84;5032707;28;20022;-65
2021/12/28 05:12:32;;;;;;;11.07;2.25;;;;;;;18.39;52.05;99188.69;5032030;28;20380;-65
2021/12/28 05:14:59;;;;;;;10.90;2.10;;;;;;;18.38;51.94;99187.84;5031593;28;20022;-66
2021/12/28 05:17:25;;;;;;;9.48;2.33;;;;;;;18.39;51.88;99186.03;5032257;28;20037;-65
2021/12/28 05:19:51;;;;;;;7.95;1.95;;;;;;;18.39;51.81;99178.97;5032387;28;20067;-65
2021/12/28 05:22:16;;;;;;;10.90;2.10;;;;;;;18.39;51.87;99178.97;5031527;28;20026;-64
2021/12/28 05:24:41;;;;;;;10.97;2.17;;;;;;;18.36;51.79;99167.91;5031975;28;20095;-65
2021/12/28 05:27:06;;;;;;;11.98;2.25;;;;;;;18.39;51.81;99176.34;5031805;28;20270;-65
2021/12/28 05:29:32;;;;;;;9.45;2.42;;;;;;;18.38;51.78;99174.66;5032178;28;20028;-65
2021/12/28 05:31:57;;;;;;;12.23;2.00;;;;;;;18.38;51.80;99166.75;5032424;28;20440;-65
2021/12/28 05:34:23;;;;;;;11.38;2.15;;;;;;;18.37;51.88;99165.09;5031749;28;20025;-64
2021/12/28 05:36:51;;;;;;;12.07;2.05;;;;;;;18.37;51.89;99167.75;5032246;28;20478;-65
2021/12/28 05:39:17;;;;;;;9.93;2.05;;;;;;;18.38;52.01;99165.94;5034659;28;20029;-65
2021/12/28 05:41:44;;;;;;;11.90;2.03;;;;;;;18.35;51.65;99158.38;5035046;28;20090;-66
2021/12/28 05:44:09;;;;;;;7.70;2.05;;;;;;;18.34;51.82;99157.56;5036047;28;20408;-67
2021/12/28 05:46:34;;;;;;;9.18;2.42;;;;;;;18.35;51.92;99164.47;5035553;28;20072;-65
2021/12/28 05:49:00;;;;;;;8.55;1.98;;;;;;;18.33;51.74;99153.25;5035320;28;20125;-65
2021/12/28 05:51:28;;;;;;;9.50;2.83;;;;;;;18.34;51.71;99154.91;5035894;28;20104;-65
2021/12/28 05:53:53;;;;;;;9.95;2.05;;;;;;;18.35;51.91;99156.53;5035521;28;20470;-66
2021/12/28 05:56:18;;;;;;;11.07;2.27;;;;;;;18.34;51.88;99147.00;5035016;28;20067;-65
2021/12/28 05:58:44;;;;;;;12.90;3.00;;;;;;;18.37;51.95;99144.00;5035191;28;20734;-64
2021/12/28 06:01:10;;;;;;;9.57;1.90;;;;;;;18.38;51.92;99145.66;5035548;28;20038;-65
2021/12/28 06:03:35;;;;;;;11.00;2.08;;;;;;;18.39;52.09;99139.41;5034753;28;20014;-64
2021/12/28 06:06:01;;;;;;;9.93;1.92;;;;;;;18.39;52.04;99142.03;5035422;28;20040;-64
2021/12/28 06:08:26;;;;;;;10.23;2.30;;;;;;;18.39;51.91;99136.78;5035497;28;20084;-66
2021/12/28 06:10:51;;;;;;;10.30;2.33;;;;;;;18.42;51.88;99136.44;5034402;28;20026;-64
2021/12/28 06:13:17;;;;;;;8.05;1.80;;;;;;;18.43;51.85;99135.44;5035394;28;20371;-65
2021/12/28 06:15:42;;;;;;;10.05;2.78;;;;;;;18.47;51.67;99133.28;5034707;28;20076;-65
2021/12/28 06:18:08;;;;;;;7.27;1.97;;;;;;;18.47;51.51;99134.13;5034682;28;20096;-65
2021/12/28 06:20:33;;;;;;;9.25;1.73;;;;;;;18.51;51.78;99123.22;5034977;28;20387;-65
2021/12/28 06:22:58;;;;;;;8.60;1.55;;;;;;;18.51;51.54;99129.31;5035040;28;20038;-65
2021/12/28 06:25:24;;;;;;;9.32;2.38;;;;;;;18.55;51.45;99124.50;5034334;28;20099;-65
2021/12/28 06:27:49;;;;;;;9.03;2.10;;;;;;;18.57;51.64;99126.00;5034728;28;20029;-66
2021/12/28 06:30:17;;;;;;;7.43;1.67;;;;;;;18.59;51.44;99113.47;5035020;28;20313;-65
2021/12/28 06:32:43;;;;;;;7.80;2.03;;;;;;;18.62;51.50;99109.66;5034158;28;20030;-65
2021/12/28 06:35:10;;;;;;;7.55;1.75;;;;;;;18.64;51.54;99107.69;5034989;28;20140;-66
2021/12/28 06:37:35;;;;;;;8.57;1.88;;;;;;;18.66;51.66;99111.00;5033694;28;20481;-65
2021/12/28 06:40:00;;;;;;;11.45;2.08;;;;;;;18.68;51.61;99109.81;5034987;28;20064;-65
2021/12/28 06:42:26;;;;;;;7.90;1.50;;;;;;;18.71;51.35;99106.03;5034794;28;20109;-65
2021/12/28 06:44:57;;;;;;;8.88;2.22;;;;;;;18.72;51.35;99107.66;5033659;28;20045;-64
2021/12/28 06:47:22;;;;;;;10.25;1.80;;;;;;;18.74;51.36;99102.19;5034866;28;20025;-65
2021/12/28 06:49:48;;;;;;;9.27;2.03;;;;;;;18.76;51.34;99113.44;5033994;28;20022;-66
2021/12/28 06:52:13;;;;;;;6.45;1.70;;;;;;;18.77;51.32;99104.50;5033829;28;20033;-65
2021/12/28 06:54:39;;;;;;;9.52;1.80;;;;;;;18.80;51.32;99101.53;5034223;28;20057;-65
2021/12/28 06:57:07;;;;;;;9.40;2.55;;;;;;;18.79;51.53;99099.88;5034436;28;20026;-65
2021/12/28 06:59:34;;;;;;;11.02;2.00;;;;;;;18.81;51.29;99101.34;5033427;28;20065;-65
2021/12/28 07:02:00;;;;;;;8.10;1.55;;;;;;;18.82;51.55;99103.00;5034309;28;20477;-66
2021/12/28 07:04:25;;;;;;;7.05;1.48;;;;;;;18.83;51.35;99099.38;5034577;28;20053;-65
2021/12/28 07:06:50;;;;;;;9.25;1.77;;;;;;;18.84;51.48;99103.69;5033235;28;20026;-64
2021/12/28 07:09:16;;;;;;;9.27;1.67;;;;;;;18.88;51.38;99108.63;5034155;28;20033;-64
2021/12/28 07:11:41;;;;;;;7.88;1.73;;;;;;;18.89;51.26;99105.00;5033960;28;20373;-65
2021/12/28 07:14:06;;;;;;;9.98;1.75;;;;;;;18.90;50.82;99114.53;5033336;28;20036;-65
2021/12/28 07:16:32;;;;;;;6.87;1.40;;;;;;;18.91;51.43;99105.63;5033980;28;20052;-65
2021/12/28 07:18:57;;;;;;;6.65;1.85;;;;;;;18.91;51.45;99103.00;5034262;28;20306;-66
2021/12/28 07:21:22;;;;;;;7.90;1.80;;;;;;;18.93;51.39;99106.28;5033381;28;20065;-66
2021/12/28 07:23:47;;;;;;;10.03;1.90;;;;;;;18.93;51.44;99098.34;5033417;28;20295;-66
2021/12/28 07:26:13;;;;;;;8.63;1.80;;;;;;;18.93;51.56;99106.28;5033883;28;20301;-65
2021/12/28 07:28:38;;;;;;;6.95;1.33;;;;;;;18.94;51.45;99113.22;5032730;28;20278;-66
2021/12/28 07:31:19;;;;;;;11.60;1.60;;;;;;;18.95;51.11;99107.75;5033911;28;20076;-64
2021/12/28 07:33:44;;;;;;;7.32;1.50;;;;;;;18.95;50.99;99093.75;5033001;28;20344;-65
2021/12/28 07:36:09;;;;;;;10.98;1.65;;;;;;;18.94;51.18;99108.75;5033505;28;20424;-66
2021/12/28 07:38:34;;;;;;;5.77;1.30;;;;;;;18.96;51.53;99100.66;5033573;28;20044;-65
2021/12/28 07:41:00;;;;;;;7.07;1.67;;;;;;;18.96;51.43;99096.22;5032982;28;20589;-61
2021/12/28 07:43:31;;;;;;;8.97;1.60;;;;;;;18.97;51.71;99105.75;5033490;28;20098;-65
2021/12/28 07:45:56;;;;;;;8.15;1.70;;;;;;;19.01;51.40;99104.44;5033335;28;20310;-66
2021/12/28 07:48:21;;;;;;;7.53;1.60;;;;;;;19.01;51.61;99103.63;5032910;28;20025;-66
2021/12/28 07:50:50;;;;;;;7.22;1.90;;;;;;;19.02;51.67;99098.16;5033018;28;20485;-65
2021/12/28 07:53:16;;;;;;;9.65;1.67;;;;;;;19.03;51.59;99099.81;5033328;28;20029;-65
2021/12/28 07:55:41;;;;;;;8.38;1.80;;;;;;;19.05;51.43;99102.28;5032109;28;20496;-65
2021/12/28 07:58:06;;;;;;;6.93;1.53;;;;;;;19.07;51.41;99102.91;5033491;28;20036;-65
2021/12/28 08:00:35;;;;;;;7.78;1.60;;;;;;;19.09;51.47;99092.19;5033017;28;20318;-65
2021/12/28 08:03:03;;;;;;;7.47;1.20;;;;;;;19.10;51.66;99086.72;5031520;28;20057;-65
2021/12/28 08:05:31;;;;;;;6.93;1.40;;;;;;;19.12;51.43;99090.03;5033113;28;20510;-66
2021/12/28 08:07:57;;;;;;;7.03;1.60;;;;;;;19.13;51.55;99091.66;5033076;28;20495;-65
2021/12/28 08:10:23;;;;;;;6.72;1.40;;;;;;;19.15;51.60;99091.50;5032350;28;20029;-64
2021/12/28 08:12:51;;;;;;;8.50;1.33;;;;;;;19.15;51.75;99091.50;5032982;28;20105;-66
2021/12/28 08:15:17;;;;;;;11.38;2.35;;;;;;;19.14;51.75;99090.69;5033103;28;20025;-66
2021/12/28 08:17:43;;;;;;;6.75;1.45;;;;;;;19.16;51.87;99093.16;5032074;28;20029;-66
2021/12/28 08:20:10;;;;;;;5.65;1.40;;;;;;;19.16;51.75;99098.44;5033009;28;20373;-66
2021/12/28 08:22:37;;;;;;;5.68;1.50;;;;;;;19.16;51.82;99096.59;5032632;28;20043;-66
2021/12/28 08:25:04;;;;;;;8.77;1.73;;;;;;;19.17;51.93;99092.97;5032155;28;20021;-66
2021/12/28 08:27:29;;;;;;;8.13;1.20;;;;;;;19.18;51.91;99084.06;5032778;28;20476;-64
2021/12/28 08:29:54;;;;;;;7.75;1.13;;;;;;;19.19;51.86;99090.16;5032794;28;20105;-66
2021/12/28 08:32:20;;;;;;;4.85;1.20;;;;;;;19.20;52.08;99084.69;4951657;28;20048;-67
2021/12/28 08:34:45;;;;;;;8.43;1.60;;;;;;;19.20;52.07;99087.34;5063938;28;20044;-65
2021/12/28 08:37:12;;;;;;;9.07;1.70;;;;;;;19.19;51.86;99079.59;5051873;28;20056;-65
2021/12/28 08:39:40;;;;;;;8.02;1.30;;;;;;;19.19;52.12;99075.13;5052381;28;20112;-67
2021/12/28 08:42:06;;;;;;;7.25;1.58;;;;;;;19.19;52.12;99083.03;5052852;28;20021;-66
2021/12/28 08:44:31;;;;;;;6.43;1.63;;;;;;;19.19;52.12;99074.31;5051569;28;20036;-67
2021/12/28 08:46:56;;;;;;;5.90;1.20;;;;;;;19.19;52.06;99076.94;5053030;28;20480;-67
2021/12/28 08:49:24;;;;;;;6.72;1.70;;;;;;;19.19;52.08;99074.31;5052730;28;20037;-68
2021/12/28 08:51:52;;;;;;;7.30;1.48;;;;;;;19.18;52.08;99080.59;5051550;28;20029;-67
2021/12/28 08:54:17;;;;;;;5.85;1.25;;;;;;;19.17;52.06;99071.03;5052806;28;20029;-67
2021/12/28 08:56:43;;;;;;;7.15;1.50;;;;;;;19.17;52.15;99077.13;5052553;28;20378;-68
2021/12/28 08:59:08;;;;;;;8.15;1.58;;;;;;;19.18;52.25;99073.50;5051838;28;20029;-67
2021/12/28 09:01:37;;;;;;;6.10;1.40;;;;;;;19.18;52.16;99070.84;5052371;28;20037;-64
2021/12/28 09:04:02;;;;;;;5.05;1.25;;;;;;;19.18;52.31;99065.56;5052370;28;20037;-65
2021/12/28 09:06:28;;;;;;;10.02;1.63;;;;;;;19.18;52.12;99062.94;5051395;28;20529;-66
2021/12/28 09:08:53;;;;;;;7.50;1.40;;;;;;;19.17;52.37;99066.56;5052342;28;20384;-66
2021/12/28 09:11:19;;;;;;;6.55;1.90;;;;;;;19.17;52.38;99063.91;5052631;28;20281;-66
2021/12/28 09:13:44;;;;;;;10.30;1.77;;;;;;;19.15;52.23;99060.66;5053290;28;20024;-66
2021/12/28 09:16:09;;;;;;;8.18;1.40;;;;;;;19.16;52.53;99058.81;5056467;28;20082;-67
2021/12/28 09:18:38;;;;;;;8.38;1.70;;;;;;;19.17;52.49;99065.75;5055948;28;20173;-65
2021/12/28 09:21:03;;;;;;;8.52;1.80;;;;;;;19.17;52.80;99060.47;5055573;28;20392;-66
2021/12/28 09:23:29;;;;;;;12.70;2.22;;;;;;;19.20;52.78;99057.44;5056132;28;20052;-66
2021/12/28 09:25:54;;;;;;;12.10;2.25;;;;;;;19.20;53.09;99054.81;5056227;28;20111;-66
2021/12/28 09:28:21;;;;;;;9.50;2.33;;;;;;;19.22;53.24;99052.84;5055579;28;20029;-66
2021/12/28 09:30:46;;;;;;;9.05;2.30;;;;;;;19.23;53.22;99048.38;5055826;28;20017;-66
2021/12/28 09:33:11;;;;;;;10.50;3.00;;;;;;;19.23;53.23;99045.72;5055996;28;20427;-66
2021/12/28 09:35:37;;;;;;;8.07;2.05;;;;;;;19.21;53.27;99036.16;5055177;28;20025;-66
2021/12/28 09:38:03;;;;;;;6.20;1.92;;;;;;;19.21;53.10;99044.06;5056513;28;20483;-67
2021/12/28 09:40:30;;;;;;;10.15;2.83;;;;;;;19.22;53.10;99047.56;5055798;28;20078;-66
2021/12/28 09:42:55;;;;;;;10.52;2.15;;;;;;;19.21;53.37;99038.78;5056171;28;20098;-66
2021/12/28 09:45:21;;;;;;;9.50;1.98;;;;;;;19.21;53.41;99038.78;5056119;28;20116;-67
2021/12/28 09:47:46;;;;;;;8.32;1.80;;;;;;;19.21;53.43;99038.78;5054763;28;20033;-66
2021/12/28 09:50:15;;;;;;;7.60;2.30;;;;;;;19.21;53.50;99037.97;5056203;28;20119;-66
2021/12/28 09:52:43;;;;;;;9.25;1.98;;;;;;;19.22;53.44;99029.06;5056776;28;20017;-68
2021/12/28 09:55:09;;;;;;;9.07;1.60;;;;;;;19.23;53.42;99032.53;5054823;28;20029;-68
2021/12/28 09:57:35;;;;;;;10.65;1.95;;;;;;;19.23;53.37;99022.78;5055431;28;20025;-68
2021/12/28 10:00:00;;;;;;;9.85;2.20;;;;;;;19.24;53.48;99027.06;5055851;28;20109;-68
2021/12/28 10:02:26;;;;;;;10.15;2.03;;;;;;;19.24;53.42;99024.44;5056269;28;20057;-68
2021/12/28 10:05:04;;;;;;;9.05;2.08;;;;;;;19.24;53.00;99019.16;5055451;28;20039;-72
2021/12/28 10:07:31;;;;;;;6.85;2.35;;;;;;;19.22;53.48;99021.16;5055502;28;20025;-67
2021/12/28 10:09:57;;;;;;;9.57;2.10;;;;;;;19.23;53.49;99012.22;5054819;28;20067;-67
2021/12/28 10:12:50;;;;;;;8.77;1.40;;;;;;;19.24;53.45;99007.78;5055460;28;20028;-65
2021/12/28 10:15:23;;;;;;;6.13;1.50;;;;;;;19.23;53.41;99004.28;5052849;28;20044;-66
2021/12/28 10:17:52;;;;;;;7.60;1.80;;;;;;;19.23;53.58;98996.38;5054175;28;20495;-65
2021/12/28 10:20:27;;;;;;;7.97;1.80;;;;;;;19.24;53.78;98997.22;5055235;28;20044;-65
2021/12/28 10:22:58;;;;;;;7.65;1.55;;;;;;;19.24;53.62;98991.94;5054037;28;20128;-66
2021/12/28 10:25:33;;;;;;;11.05;2.22;;;;;;;19.24;53.43;98976.09;5054221;28;20025;-66
2021/12/28 10:28:01;;;;;;;10.88;1.95;;;;;;;19.23;53.38;98971.78;5054953;28;20029;-66
2021/12/28 10:30:36;;;;;;;9.10;2.30;;;;;;;19.24;53.59;98965.50;5054203;28;20052;-67
2021/12/28 10:33:05;;;;;;;10.65;1.65;;;;;;;19.23;53.25;98961.22;5055125;28;20037;-66
2021/12/28 10:35:33;;;;;;;6.97;1.45;;;;;;;19.22;53.41;98949.84;5054700;28;20044;-65
2021/12/28 10:38:04;;;;;;;7.05;1.77;;;;;;;19.21;53.45;98950.84;5054151;28;20052;-68
2021/12/28 10:40:57;;;;;;;7.90;1.52;;;;;;;19.20;53.60;98949.19;5054728;28;20025;-68
2021/12/28 10:43:31;;;;;;;6.65;1.33;;;;;;;19.20;53.64;98950.03;5052436;28;20065;-65
2021/12/28 10:46:02;;;;;;;6.47;1.67;;;;;;;19.22;53.76;98941.94;5054033;28;20028;-64
2021/12/28 10:48:35;;;;;;;5.70;1.40;;;;;;;19.25;53.48;98949.50;5054690;28;20039;-65
2021/12/28 10:51:04;;;;;;;6.65;1.20;;;;;;;19.24;53.39;98947.84;5054124;28;20500;-64
2021/12/28 10:53:43;;;;;;;9.73;1.42;;;;;;;19.25;53.30;98946.00;5054472;28;20112;-66
2021/12/28 10:56:09;;;;;;;8.45;1.77;;;;;;;19.23;53.29;98948.81;5054679;28;20039;-67
2021/12/28 10:58:41;;;;;;;9.73;1.80;;;;;;;19.24;52.98;98947.03;5053463;28;20052;-66
2021/12/28 11:01:17;;;;;;;6.85;1.38;;;;;;;19.23;53.16;98942.75;5054359;28;20037;-66
2021/12/28 11:03:45;;;;;;;7.63;1.15;;;;;;;19.23;53.11;98937.44;5054344;28;20051;-66
2021/12/28 11:06:17;;;;;;;6.80;1.40;;;;;;;19.20;53.13;98933.34;5053509;28;20045;-66
2021/12/28 11:08:44;;;;;;;8.50;1.42;;;;;;;19.20;53.22;98926.25;5054181;28;20104;-66
2021/12/28 11:11:13;;;;;;;7.03;1.30;;;;;;;19.21;53.18;98922.59;5054322;28;20150;-66
2021/12/28 11:13:39;;;;;;;8.27;1.77;;;;;;;19.20;53.39;98918.34;5053027;28;20025;-66
2021/12/28 11:16:07;;;;;;;9.25;1.80;;;;;;;19.21;53.19;98908.59;5054417;28;20031;-66
2021/12/28 11:18:37;;;;;;;8.95;1.98;;;;;;;19.20;53.36;98906.94;5053925;28;20116;-66
2021/12/28 11:21:20;;;;;;;8.25;1.60;;;;;;;19.20;53.15;98910.41;5053333;28;20044;-66
2021/12/28 11:23:50;;;;;;;7.97;1.40;;;;;;;19.19;53.17;98903.47;5053521;28;20102;-66
2021/12/28 11:26:25;;;;;;;6.75;1.17;;;;;;;19.18;52.69;98909.78;5053216;28;20029;-66
2021/12/28 11:29:20;;;;;;;5.65;1.00;;;;;;;19.17;53.12;98904.69;5053760;28;20017;-64
2021/12/28 11:31:59;;;;;;;5.28;1.38;;;;;;;19.16;53.17;98911.75;5053609;28;20143;-66
2021/12/28 11:34:36;;;;;;;6.43;1.40;;;;;;;19.15;53.06;98909.28;5052890;28;20028;-67